Parks, Arizona
Current Conditions -  °F | °C
As of 10:42 AM on Thursday 25 Dec 2014 (Local Time) from KFLG Reporting Station
Moderate Snow Moderate Snow  
Wind Chill: 15°   Ceiling: 1700
Heat Index: 27°   Visibility: 0.5mi
Dew Point: 21°   Wind: 15mph
Humidity: 78%   Direction: 230°SW
Pressure: 29.7"   Gusts: NA
Location:  35.26°N, 111.95°W
Report Text: KFLG 251742Z 23013KT 1/2SM SN BKN017 OVC032 M03/M06 A2970 RMK AO2 P0002 T10281061
Loading
Personal Weather Stations






























Interactive Weather Map New forecast layout! Learn more

10-Day Weather Forecast

Advertisements
Track Severe Weather on mobile